Kununurra Airport
YPKU : now visible

Airfield :











YOU CAN JOIN US ON...

 
LOGIN :

Register | Disclaimer

   EN    FR    IT 

 









Legend :    VFR   Marginal VFR   IFR   Intensive IFR   Very Intensive IFR
Visi :
Ceiling :
>= 8 km
>= 3000ft
5 to 8 km
1000 to 3000 ft
1500m to 5 km
500 to 1000 ft
800 to 1500m
200 to 500 ft
< 800m
< 200 ft
Symbols :   Thunderstorms  Fog  Heavy snow  Heavy precipitations  Wind > 20 kt






- Airport Elevation : 145 ft
- IATA code : KNX


YPKU - Kununurra

CURRENT METAR :
  • 250000Z AUTO 19003KT 9999 // NCD 22/13 Q1014 RF00.0/000.0

EXPIRED METARs :
  • 242330Z AUTO 23003KT 9999 // FEW064 19/13 Q1014 RF00.0/000.0
  • 242300Z AUTO 00000KT 9999 // NCD 16/14 Q1014 RF00.0/000.0
  • 242230Z AUTO 00000KT 9999 // NCD 14/12 Q1013 RF00.0/000.0
  • 242200Z AUTO 00000KT 9999 // NCD 13/12 Q1013 RF00.0/000.0
  • 242130Z AUTO 12003KT 9999 // NCD 14/13 Q1013 RF00.0/000.0
  • 242100Z AUTO 17002KT 9999 // NCD 14/12 Q1013 RF00.0/000.0
  • 242030Z AUTO 00000KT 9999 // NCD 14/12 Q1012 RF00.0/000.0
  • 242000Z AUTO 00000KT 9999 // NCD 14/12 Q1012 RF00.0/000.0
  • 241930Z AUTO 32004KT 310V120 9999 // NCD 13/11 Q1012 RF00.0/000.0

TAF TAF YPKU
Valid from the 24 at 20:00 until the 25 at 08:00 UTC


241905Z 2420/2508 VRB03KT CAVOK
FM250000 15007KT CAVOK
FM250300 06007KT CAVOK
YBBB FIR / Oceania



MET'MAP, your aeronautical weather chart ! - Copyright ORBIFLY December 2007 - Disclaimer

ORBIFLY MET'MAP TEAM :

Programming & Development : Alexandra Zaïnal
Original concept : Baudouin d'Aumeries
Technical & hardware support : Manuel Goepfert
Assistance : Marc-Olivier Méhu




SOURCES & CREDITS :

   NOAA       Earth
Advisory